sensor_id;sensor_type;location;lat;lon;timestamp;pressure;altitude;pressure_sealevel;temperature;humidity
45357;BME280;31092;51.924;21.448;2023-04-27T00:00:45;100319.38;;;-1.00;100.00
45357;BME280;31092;51.924;21.448;2023-04-27T00:03:11;100321.09;;;-0.99;100.00
45357;BME280;31092;51.924;21.448;2023-04-27T00:05:37;100320.16;;;-0.98;100.00
45357;BME280;31092;51.924;21.448;2023-04-27T00:08:03;100322.91;;;-1.00;100.00
45357;BME280;31092;51.924;21.448;2023-04-27T00:10:29;100318.66;;;-1.02;100.00
45357;BME280;31092;51.924;21.448;2023-04-27T00:12:54;100320.63;;;-1.06;100.00
45357;BME280;31092;51.924;21.448;2023-04-27T00:15:19;100315.41;;;-1.07;100.00
45357;BME280;31092;51.924;21.448;2023-04-27T00:17:45;100325.06;;;-1.06;100.00
45357;BME280;31092;51.924;21.448;2023-04-27T00:20:10;100319.09;;;-1.10;100.00
45357;BME280;31092;51.924;21.448;2023-04-27T00:22:39;100322.75;;;-1.12;100.00
45357;BME280;31092;51.924;21.448;2023-04-27T00:25:05;100320.56;;;-1.20;100.00
45357;BME280;31092;51.924;21.448;2023-04-27T00:27:30;100325.34;;;-1.27;100.00
45357;BME280;31092;51.924;21.448;2023-04-27T00:29:55;100328.28;;;-1.31;100.00
45357;BME280;31092;51.924;21.448;2023-04-27T00:32:21;100336.00;;;-1.28;100.00
45357;BME280;31092;51.924;21.448;2023-04-27T00:34:46;100338.84;;;-1.31;100.00
45357;BME280;31092;51.924;21.448;2023-04-27T00:37:11;100327.75;;;-1.38;100.00
45357;BME280;31092;51.924;21.448;2023-04-27T00:39:37;100336.81;;;-1.42;100.00
45357;BME280;31092;51.924;21.448;2023-04-27T00:42:02;100339.44;;;-1.42;100.00
45357;BME280;31092;51.924;21.448;2023-04-27T00:44:28;100339.34;;;-1.40;100.00
45357;BME280;31092;51.924;21.448;2023-04-27T00:46:53;100343.78;;;-1.41;100.00
45357;BME280;31092;51.924;21.448;2023-04-27T00:49:19;100340.31;;;-1.41;100.00
45357;BME280;31092;51.924;21.448;2023-04-27T00:51:45;100351.97;;;-1.46;100.00
45357;BME280;31092;51.924;21.448;2023-04-27T00:54:11;100334.84;;;-1.54;100.00
45357;BME280;31092;51.924;21.448;2023-04-27T00:56:37;100340.22;;;-1.56;100.00
45357;BME280;31092;51.924;21.448;2023-04-27T00:59:02;100342.25;;;-1.61;100.00
45357;BME280;31092;51.924;21.448;2023-04-27T01:01:28;100345.06;;;-1.64;100.00
45357;BME280;31092;51.924;21.448;2023-04-27T01:03:54;100346.09;;;-1.66;100.00
45357;BME280;31092;51.924;21.448;2023-04-27T01:06:19;100345.00;;;-1.62;100.00
45357;BME280;31092;51.924;21.448;2023-04-27T01:08:45;100342.25;;;-1.61;100.00
45357;BME280;31092;51.924;21.448;2023-04-27T01:11:11;100349.66;;;-1.67;100.00
45357;BME280;31092;51.924;21.448;2023-04-27T01:13:36;100353.78;;;-1.78;100.00
45357;BME280;31092;51.924;21.448;2023-04-27T01:16:01;100357.75;;;-1.86;100.00
45357;BME280;31092;51.924;21.448;2023-04-27T01:18:27;100358.78;;;-1.89;100.00
45357;BME280;31092;51.924;21.448;2023-04-27T01:20:52;100359.66;;;-1.88;100.00
45357;BME280;31092;51.924;21.448;2023-04-27T01:23:17;100360.13;;;-1.82;100.00
45357;BME280;31092;51.924;21.448;2023-04-27T01:25:43;100363.41;;;-1.77;100.00
45357;BME280;31092;51.924;21.448;2023-04-27T01:28:08;100358.78;;;-1.73;100.00
45357;BME280;31092;51.924;21.448;2023-04-27T01:30:33;100361.44;;;-1.73;100.00
45357;BME280;31092;51.924;21.448;2023-04-27T01:32:59;100368.41;;;-1.72;100.00
45357;BME280;31092;51.924;21.448;2023-04-27T01:35:24;100365.03;;;-1.74;100.00
45357;BME280;31092;51.924;21.448;2023-04-27T01:37:50;100367.91;;;-1.79;100.00
45357;BME280;31092;51.924;21.448;2023-04-27T01:40:15;100361.75;;;-1.79;100.00
45357;BME280;31092;51.924;21.448;2023-04-27T01:42:40;100369.69;;;-1.79;100.00
45357;BME280;31092;51.924;21.448;2023-04-27T01:45:06;100364.41;;;-1.79;100.00
45357;BME280;31092;51.924;21.448;2023-04-27T01:47:31;100366.97;;;-1.78;100.00
45357;BME280;31092;51.924;21.448;2023-04-27T01:49:57;100371.47;;;-1.80;100.00
45357;BME280;31092;51.924;21.448;2023-04-27T01:52:22;100369.00;;;-1.83;100.00
45357;BME280;31092;51.924;21.448;2023-04-27T01:54:47;100374.81;;;-1.92;100.00
45357;BME280;31092;51.924;21.448;2023-04-27T01:57:13;100370.59;;;-1.96;100.00
45357;BME280;31092;51.924;21.448;2023-04-27T01:59:38;100374.13;;;-1.96;100.00
45357;BME280;31092;51.924;21.448;2023-04-27T02:02:04;100378.03;;;-2.03;100.00
45357;BME280;31092;51.924;21.448;2023-04-27T02:04:29;100378.19;;;-2.06;100.00
45357;BME280;31092;51.924;21.448;2023-04-27T02:06:55;100374.59;;;-2.05;100.00
45357;BME280;31092;51.924;21.448;2023-04-27T02:09:20;100370.16;;;-2.04;100.00
45357;BME280;31092;51.924;21.448;2023-04-27T02:11:45;100366.84;;;-2.08;100.00
45357;BME280;31092;51.924;21.448;2023-04-27T02:14:11;100369.63;;;-2.11;100.00
45357;BME280;31092;51.924;21.448;2023-04-27T02:16:36;100369.63;;;-2.11;100.00
45357;BME280;31092;51.924;21.448;2023-04-27T02:19:01;100373.22;;;-2.12;100.00
45357;BME280;31092;51.924;21.448;2023-04-27T02:21:27;100374.84;;;-2.09;100.00
45357;BME280;31092;51.924;21.448;2023-04-27T02:23:53;100374.59;;;-2.05;100.00
45357;BME280;31092;51.924;21.448;2023-04-27T02:26:19;100375.28;;;-2.01;100.00
45357;BME280;31092;51.924;21.448;2023-04-27T02:28:45;100370.94;;;-2.02;100.00
45357;BME280;31092;51.924;21.448;2023-04-27T02:31:11;100374.59;;;-2.05;100.00
45357;BME280;31092;51.924;21.448;2023-04-27T02:33:38;100373.22;;;-2.12;100.00
45357;BME280;31092;51.924;21.448;2023-04-27T02:36:03;100379.75;;;-2.19;100.00
45357;BME280;31092;51.924;21.448;2023-04-27T02:38:28;100382.72;;;-2.25;100.00
45357;BME280;31092;51.924;21.448;2023-04-27T02:40:54;100385.34;;;-2.25;100.00
45357;BME280;31092;51.924;21.448;2023-04-27T02:43:19;100383.56;;;-2.25;100.00
45357;BME280;31092;51.924;21.448;2023-04-27T02:45:45;100388.16;;;-2.28;100.00
45357;BME280;31092;51.924;21.448;2023-04-27T02:48:10;100387.56;;;-2.33;100.00
45357;BME280;31092;51.924;21.448;2023-04-27T02:50:39;100391.59;;;-2.44;100.00
45357;BME280;31092;51.924;21.448;2023-04-27T02:53:05;100392.00;;;-2.51;100.00
45357;BME280;31092;51.924;21.448;2023-04-27T02:55:30;100390.31;;;-2.52;100.00
45357;BME280;31092;51.924;21.448;2023-04-27T02:57:55;100394.69;;;-2.53;100.00
45357;BME280;31092;51.924;21.448;2023-04-27T03:00:21;100401.00;;;-2.55;100.00
45357;BME280;31092;51.924;21.448;2023-04-27T03:02:47;100402.00;;;-2.58;100.00
45357;BME280;31092;51.924;21.448;2023-04-27T03:05:12;100399.59;;;-2.62;100.00
45357;BME280;31092;51.924;21.448;2023-04-27T03:07:37;100402.16;;;-2.61;100.00
45357;BME280;31092;51.924;21.448;2023-04-27T03:10:03;100402.84;;;-2.57;100.00
45357;BME280;31092;51.924;21.448;2023-04-27T03:12:28;100408.56;;;-2.49;100.00
45357;BME280;31092;51.924;21.448;2023-04-27T03:14:53;100408.38;;;-2.45;100.00
45357;BME280;31092;51.924;21.448;2023-04-27T03:17:19;100406.63;;;-2.46;100.00
45357;BME280;31092;51.924;21.448;2023-04-27T03:19:45;100409.47;;;-2.49;100.00
45357;BME280;31092;51.924;21.448;2023-04-27T03:22:11;100414.09;;;-2.54;100.00
45357;BME280;31092;51.924;21.448;2023-04-27T03:24:36;100403.56;;;-2.54;100.00
45357;BME280;31092;51.924;21.448;2023-04-27T03:27:02;100413.94;;;-2.51;100.00
45357;BME280;31092;51.924;21.448;2023-04-27T03:29:27;100414.03;;;-2.52;100.00
45357;BME280;31092;51.924;21.448;2023-04-27T03:31:52;100418.06;;;-2.62;100.00
45357;BME280;31092;51.924;21.448;2023-04-27T03:34:18;100419.16;;;-2.67;100.00
45357;BME280;31092;51.924;21.448;2023-04-27T03:36:45;100421.94;;;-2.70;100.00
45357;BME280;31092;51.924;21.448;2023-04-27T03:39:10;100417.44;;;-2.68;100.00
45357;BME280;31092;51.924;21.448;2023-04-27T03:41:35;100412.00;;;-2.65;100.00
45357;BME280;31092;51.924;21.448;2023-04-27T03:44:01;100423.09;;;-2.58;100.00
45357;BME280;31092;51.924;21.448;2023-04-27T03:46:26;100424.50;;;-2.51;100.00
45357;BME280;31092;51.924;21.448;2023-04-27T03:48:51;100424.25;;;-2.46;100.00
45357;BME280;31092;51.924;21.448;2023-04-27T03:51:17;100427.66;;;-2.44;100.00
45357;BME280;31092;51.924;21.448;2023-04-27T03:53:42;100437.03;;;-2.38;100.00
45357;BME280;31092;51.924;21.448;2023-04-27T03:56:07;100437.72;;;-2.35;100.00
45357;BME280;31092;51.924;21.448;2023-04-27T03:58:33;100448.38;;;-2.36;100.00
45357;BME280;31092;51.924;21.448;2023-04-27T04:00:58;100440.31;;;-2.33;100.00
45357;BME280;31092;51.924;21.448;2023-04-27T04:03:23;100439.91;;;-2.26;100.00
45357;BME280;31092;51.924;21.448;2023-04-27T04:05:48;100450.16;;;-2.20;100.00
45357;BME280;31092;51.924;21.448;2023-04-27T04:08:14;100451.06;;;-2.21;100.00
45357;BME280;31092;51.924;21.448;2023-04-27T04:10:39;100448.22;;;-2.16;100.00
45357;BME280;31092;51.924;21.448;2023-04-27T04:13:05;100451.38;;;-2.09;100.00
45357;BME280;31092;51.924;21.448;2023-04-27T04:15:30;100448.34;;;-2.02;100.00
45357;BME280;31092;51.924;21.448;2023-04-27T04:17:55;100453.06;;;-1.91;100.00
45357;BME280;31092;51.924;21.448;2023-04-27T04:20:21;100446.41;;;-1.82;100.00
45357;BME280;31092;51.924;21.448;2023-04-27T04:22:46;100447.63;;;-1.72;100.00
45357;BME280;31092;51.924;21.448;2023-04-27T04:25:11;100442.72;;;-1.62;100.00
45357;BME280;31092;51.924;21.448;2023-04-27T04:27:37;100449.38;;;-1.55;100.00
45357;BME280;31092;51.924;21.448;2023-04-27T04:30:03;100452.38;;;-1.46;100.00
45357;BME280;31092;51.924;21.448;2023-04-27T04:32:30;100453.81;;;-1.40;100.00
45357;BME280;31092;51.924;21.448;2023-04-27T04:34:56;100456.03;;;-1.32;100.00
45357;BME280;31092;51.924;21.448;2023-04-27T04:37:21;100460.97;;;-1.26;100.00
45357;BME280;31092;51.924;21.448;2023-04-27T04:39:47;100459.53;;;-1.16;100.00
45357;BME280;31092;51.924;21.448;2023-04-27T04:42:12;100453.47;;;-1.02;100.00
45357;BME280;31092;51.924;21.448;2023-04-27T04:44:37;100460.53;;;-0.87;100.00
45357;BME280;31092;51.924;21.448;2023-04-27T04:47:03;100457.19;;;-0.75;100.00
45357;BME280;31092;51.924;21.448;2023-04-27T04:49:29;100459.97;;;-0.62;100.00
45357;BME280;31092;51.924;21.448;2023-04-27T04:51:54;100460.47;;;-0.55;100.00
45357;BME280;31092;51.924;21.448;2023-04-27T04:54:19;100464.63;;;-0.51;100.00
45357;BME280;31092;51.924;21.448;2023-04-27T04:56:45;100455.50;;;-0.45;100.00
45357;BME280;31092;51.924;21.448;2023-04-27T04:59:10;100462.97;;;-0.38;100.00
45357;BME280;31092;51.924;21.448;2023-04-27T05:01:35;100458.06;;;-0.30;100.00
45357;BME280;31092;51.924;21.448;2023-04-27T05:04:01;100457.53;;;-0.20;100.00
45357;BME280;31092;51.924;21.448;2023-04-27T05:06:26;100458.75;;;-0.12;100.00
45357;BME280;31092;51.924;21.448;2023-04-27T05:08:51;100459.91;;;-0.02;100.00
45357;BME280;31092;51.924;21.448;2023-04-27T05:11:17;100468.91;;;0.10;100.00
45357;BME280;31092;51.924;21.448;2023-04-27T05:13:42;100468.25;;;0.21;100.00
45357;BME280;31092;51.924;21.448;2023-04-27T05:16:08;100466.47;;;0.36;100.00
45357;BME280;31092;51.924;21.448;2023-04-27T05:18:33;100463.69;;;0.52;100.00
45357;BME280;31092;51.924;21.448;2023-04-27T05:20:59;100471.25;;;0.72;100.00
45357;BME280;31092;51.924;21.448;2023-04-27T05:23:25;100477.88;;;1.06;100.00
45357;BME280;31092;51.924;21.448;2023-04-27T05:25:50;100480.41;;;1.22;100.00
45357;BME280;31092;51.924;21.448;2023-04-27T05:28:15;100477.06;;;1.46;100.00
45357;BME280;31092;51.924;21.448;2023-04-27T05:30:41;100479.38;;;1.77;100.00
45357;BME280;31092;51.924;21.448;2023-04-27T05:33:06;100479.34;;;2.17;100.00
45357;BME280;31092;51.924;21.448;2023-04-27T05:35:32;100474.81;;;2.56;100.00
45357;BME280;31092;51.924;21.448;2023-04-27T05:37:57;100473.97;;;3.29;100.00
45357;BME280;31092;51.924;21.448;2023-04-27T05:40:23;100473.97;;;3.53;100.00
45357;BME280;31092;51.924;21.448;2023-04-27T05:42:48;100471.00;;;3.80;100.00
45357;BME280;31092;51.924;21.448;2023-04-27T05:45:14;100476.19;;;4.17;100.00
45357;BME280;31092;51.924;21.448;2023-04-27T05:47:39;100479.00;;;4.38;100.00
45357;BME280;31092;51.924;21.448;2023-04-27T05:50:04;100472.91;;;4.92;100.00
45357;BME280;31092;51.924;21.448;2023-04-27T05:52:30;100477.44;;;5.35;100.00
45357;BME280;31092;51.924;21.448;2023-04-27T05:54:56;100472.00;;;5.25;100.00
45357;BME280;31092;51.924;21.448;2023-04-27T05:57:22;100478.00;;;5.06;100.00
45357;BME280;31092;51.924;21.448;2023-04-27T05:59:47;100478.84;;;5.07;100.00
45357;BME280;31092;51.924;21.448;2023-04-27T06:02:13;100478.44;;;5.11;100.00
45357;BME280;31092;51.924;21.448;2023-04-27T06:04:38;100476.97;;;5.18;100.00
45357;BME280;31092;51.924;21.448;2023-04-27T06:07:07;100482.09;;;5.10;100.00
45357;BME280;31092;51.924;21.448;2023-04-27T06:09:33;100475.19;;;5.08;100.00
45357;BME280;31092;51.924;21.448;2023-04-27T06:11:58;100475.78;;;5.11;100.00
45357;BME280;31092;51.924;21.448;2023-04-27T06:14:24;100474.19;;;5.20;100.00
45357;BME280;31092;51.924;21.448;2023-04-27T06:16:49;100469.91;;;5.28;100.00
45357;BME280;31092;51.924;21.448;2023-04-27T06:19:15;100473.06;;;5.34;100.00
45357;BME280;31092;51.924;21.448;2023-04-27T06:21:40;100471.69;;;5.39;100.00
45357;BME280;31092;51.924;21.448;2023-04-27T06:24:06;100478.22;;;5.46;100.00
45357;BME280;31092;51.924;21.448;2023-04-27T06:26:31;100473.09;;;5.55;100.00
45357;BME280;31092;51.924;21.448;2023-04-27T06:28:57;100473.38;;;5.72;100.00
45357;BME280;31092;51.924;21.448;2023-04-27T06:31:23;100474.84;;;5.97;100.00
45357;BME280;31092;51.924;21.448;2023-04-27T06:33:48;100477.19;;;6.12;100.00
45357;BME280;31092;51.924;21.448;2023-04-27T06:36:14;100475.44;;;6.22;100.00
45357;BME280;31092;51.924;21.448;2023-04-27T06:38:39;100469.16;;;6.33;100.00
45357;BME280;31092;51.924;21.448;2023-04-27T06:41:05;100466.69;;;6.51;100.00
45357;BME280;31092;51.924;21.448;2023-04-27T06:43:30;100468.75;;;6.68;100.00
45357;BME280;31092;51.924;21.448;2023-04-27T06:45:56;100469.94;;;6.85;100.00
45357;BME280;31092;51.924;21.448;2023-04-27T06:48:21;100462.06;;;6.93;100.00
45357;BME280;31092;51.924;21.448;2023-04-27T06:50:47;100464.09;;;7.10;100.00
45357;BME280;31092;51.924;21.448;2023-04-27T06:53:12;100465.09;;;7.29;100.00
45357;BME280;31092;51.924;21.448;2023-04-27T06:55:38;100466.38;;;7.34;100.00
45357;BME280;31092;51.924;21.448;2023-04-27T06:58:03;100460.88;;;7.46;100.00
45357;BME280;31092;51.924;21.448;2023-04-27T07:00:29;100462.00;;;7.53;100.00
45357;BME280;31092;51.924;21.448;2023-04-27T07:02:55;100463.44;;;7.66;100.00
45357;BME280;31092;51.924;21.448;2023-04-27T07:05:20;100460.88;;;7.75;100.00
45357;BME280;31092;51.924;21.448;2023-04-27T07:07:46;100459.47;;;7.80;100.00
45357;BME280;31092;51.924;21.448;2023-04-27T07:10:11;100457.19;;;7.95;100.00
45357;BME280;31092;51.924;21.448;2023-04-27T07:12:37;100465.50;;;8.11;100.00
45357;BME280;31092;51.924;21.448;2023-04-27T07:15:03;100455.84;;;8.28;100.00
45357;BME280;31092;51.924;21.448;2023-04-27T07:17:30;100454.28;;;8.45;100.00
45357;BME280;31092;51.924;21.448;2023-04-27T07:19:55;100454.78;;;8.58;100.00
45357;BME280;31092;51.924;21.448;2023-04-27T07:22:21;100458.28;;;8.69;100.00
45357;BME280;31092;51.924;21.448;2023-04-27T07:24:46;100454.97;;;8.75;100.00
45357;BME280;31092;51.924;21.448;2023-04-27T07:27:11;100457.34;;;8.87;100.00
45357;BME280;31092;51.924;21.448;2023-04-27T07:29:37;100458.50;;;9.03;100.00
45357;BME280;31092;51.924;21.448;2023-04-27T07:32:06;100455.56;;;9.24;100.00
45357;BME280;31092;51.924;21.448;2023-04-27T07:34:31;100456.28;;;9.44;100.00
45357;BME280;31092;51.924;21.448;2023-04-27T07:36:57;100462.03;;;9.49;100.00
45357;BME280;31092;51.924;21.448;2023-04-27T07:39:22;100460.03;;;9.51;100.00
45357;BME280;31092;51.924;21.448;2023-04-27T07:41:48;100464.19;;;9.63;100.00
45357;BME280;31092;51.924;21.448;2023-04-27T07:44:14;100457.19;;;9.70;100.00
45357;BME280;31092;51.924;21.448;2023-04-27T07:46:39;100451.53;;;9.81;100.00
45357;BME280;31092;51.924;21.448;2023-04-27T07:49:05;100465.88;;;9.82;100.00
45357;BME280;31092;51.924;21.448;2023-04-27T07:51:30;100455.19;;;10.16;100.00
45357;BME280;31092;51.924;21.448;2023-04-27T07:53:56;100452.38;;;10.44;100.00
45357;BME280;31092;51.924;21.448;2023-04-27T07:56:21;100446.13;;;10.77;100.00
45357;BME280;31092;51.924;21.448;2023-04-27T07:58:46;100453.00;;;11.22;100.00
45357;BME280;31092;51.924;21.448;2023-04-27T08:01:12;100451.13;;;11.07;100.00
45357;BME280;31092;51.924;21.448;2023-04-27T08:03:37;100449.59;;;11.04;100.00
45357;BME280;31092;51.924;21.448;2023-04-27T08:06:02;100440.56;;;11.21;100.00
45357;BME280;31092;51.924;21.448;2023-04-27T08:08:28;100437.53;;;11.33;100.00
45357;BME280;31092;51.924;21.448;2023-04-27T08:10:54;100437.38;;;11.59;100.00
45357;BME280;31092;51.924;21.448;2023-04-27T08:13:19;100431.94;;;11.26;100.00
45357;BME280;31092;51.924;21.448;2023-04-27T08:15:44;100443.91;;;10.73;100.00
45357;BME280;31092;51.924;21.448;2023-04-27T08:18:10;100436.53;;;10.41;100.00
45357;BME280;31092;51.924;21.448;2023-04-27T08:20:35;100444.94;;;10.20;100.00
45357;BME280;31092;51.924;21.448;2023-04-27T08:23:00;100450.31;;;9.94;100.00
45357;BME280;31092;51.924;21.448;2023-04-27T08:25:26;100455.44;;;9.61;100.00
45357;BME280;31092;51.924;21.448;2023-04-27T08:27:51;100454.50;;;9.34;100.00
45357;BME280;31092;51.924;21.448;2023-04-27T08:30:16;100456.41;;;9.24;100.00
45357;BME280;31092;51.924;21.448;2023-04-27T08:32:42;100459.09;;;9.24;100.00
45357;BME280;31092;51.924;21.448;2023-04-27T08:35:07;100454.97;;;9.30;100.00
45357;BME280;31092;51.924;21.448;2023-04-27T08:37:33;100456.50;;;9.32;100.00
45357;BME280;31092;51.924;21.448;2023-04-27T08:39:58;100457.47;;;9.49;100.00
45357;BME280;31092;51.924;21.448;2023-04-27T08:42:23;100449.75;;;9.64;100.00
45357;BME280;31092;51.924;21.448;2023-04-27T08:44:49;100455.81;;;9.66;100.00
45357;BME280;31092;51.924;21.448;2023-04-27T08:47:14;100457.47;;;9.49;100.00
45357;BME280;31092;51.924;21.448;2023-04-27T08:49:44;100452.81;;;9.33;100.00
45357;BME280;31092;51.924;21.448;2023-04-27T08:52:16;100462.78;;;9.23;100.00
45357;BME280;31092;51.924;21.448;2023-04-27T08:54:41;100463.00;;;9.12;100.00
45357;BME280;31092;51.924;21.448;2023-04-27T08:57:13;100461.06;;;9.04;100.00
45357;BME280;31092;51.924;21.448;2023-04-27T08:59:39;100467.75;;;9.00;100.00
45357;BME280;31092;51.924;21.448;2023-04-27T09:02:05;100461.50;;;9.00;100.00
45357;BME280;31092;51.924;21.448;2023-04-27T09:04:39;100466.75;;;9.01;100.00
45357;BME280;31092;51.924;21.448;2023-04-27T09:07:12;100464.00;;;9.11;100.00
45357;BME280;31092;51.924;21.448;2023-04-27T09:09:38;100465.84;;;9.28;100.00
45357;BME280;31092;51.924;21.448;2023-04-27T09:12:24;100468.25;;;9.49;100.00
45357;BME280;31092;51.924;21.448;2023-04-27T09:15:02;100461.09;;;9.94;100.00
45357;BME280;31092;51.924;21.448;2023-04-27T09:17:28;100465.06;;;10.07;100.00
45357;BME280;31092;51.924;21.448;2023-04-27T09:22:43;100461.09;;;9.94;100.00
45357;BME280;31092;51.924;21.448;2023-04-27T09:25:09;100467.25;;;9.86;100.00
45357;BME280;31092;51.924;21.448;2023-04-27T09:27:36;100461.34;;;9.82;100.00
45357;BME280;31092;51.924;21.448;2023-04-27T09:30:10;100456.72;;;9.93;100.00
45357;BME280;31092;51.924;21.448;2023-04-27T09:32:36;100444.91;;;10.12;100.00
45357;BME280;31092;51.924;21.448;2023-04-27T09:35:02;100454.69;;;10.21;100.00
45357;BME280;31092;51.924;21.448;2023-04-27T09:37:28;100457.03;;;10.16;100.00
45357;BME280;31092;51.924;21.448;2023-04-27T09:39:53;100462.59;;;10.14;100.00
45357;BME280;31092;51.924;21.448;2023-04-27T09:42:19;100460.50;;;10.08;100.00
45357;BME280;31092;51.924;21.448;2023-04-27T09:44:45;100463.22;;;10.08;100.00
45357;BME280;31092;51.924;21.448;2023-04-27T09:47:10;100459.69;;;10.07;100.00
45357;BME280;31092;51.924;21.448;2023-04-27T09:49:37;100467.09;;;10.14;100.00
45357;BME280;31092;51.924;21.448;2023-04-27T09:52:02;100464.09;;;10.17;100.00
45357;BME280;31092;51.924;21.448;2023-04-27T09:54:29;100463.78;;;10.20;100.00
45357;BME280;31092;51.924;21.448;2023-04-27T10:02:16;100462.63;;;10.22;100.00
45357;BME280;31092;51.924;21.448;2023-04-27T10:04:47;100462.78;;;10.21;100.00
45357;BME280;31092;51.924;21.448;2023-04-27T10:07:17;100465.47;;;10.21;100.00
45357;BME280;31092;51.924;21.448;2023-04-27T10:09:46;100459.50;;;10.27;100.00
45357;BME280;31092;51.924;21.448;2023-04-27T10:12:27;100463.72;;;10.29;100.00
45357;BME280;31092;51.924;21.448;2023-04-27T10:14:56;100452.59;;;10.59;100.00
45357;BME280;31092;51.924;21.448;2023-04-27T10:20:03;100447.75;;;10.70;100.00
45357;BME280;31092;51.924;21.448;2023-04-27T10:22:47;100445.88;;;10.63;100.00
45357;BME280;31092;51.924;21.448;2023-04-27T10:25:20;100451.03;;;10.48;100.00
45357;BME280;31092;51.924;21.448;2023-04-27T10:27:50;100454.50;;;10.32;100.00
45357;BME280;31092;51.924;21.448;2023-04-27T10:30:17;100459.25;;;10.20;100.00
45357;BME280;31092;51.924;21.448;2023-04-27T10:32:55;100447.03;;;10.26;100.00
45357;BME280;31092;51.924;21.448;2023-04-27T10:35:22;100443.78;;;10.48;100.00
45357;BME280;31092;51.924;21.448;2023-04-27T10:37:47;100429.09;;;10.69;100.00
45357;BME280;31092;51.924;21.448;2023-04-27T10:40:13;100444.94;;;11.22;100.00
45357;BME280;31092;51.924;21.448;2023-04-27T10:42:43;100442.94;;;11.41;100.00
45357;BME280;31092;51.924;21.448;2023-04-27T10:45:08;100441.63;;;11.61;100.00
45357;BME280;31092;51.924;21.448;2023-04-27T10:47:38;100445.81;;;11.47;100.00
45357;BME280;31092;51.924;21.448;2023-04-27T10:50:04;100447.81;;;11.29;100.00
45357;BME280;31092;51.924;21.448;2023-04-27T10:52:30;100455.84;;;11.13;100.00
45357;BME280;31092;51.924;21.448;2023-04-27T10:54:55;100455.28;;;10.93;100.00
45357;BME280;31092;51.924;21.448;2023-04-27T10:57:21;100452.03;;;10.81;100.00
45357;BME280;31092;51.924;21.448;2023-04-27T10:59:48;100457.56;;;10.71;100.00
45357;BME280;31092;51.924;21.448;2023-04-27T11:02:14;100459.03;;;10.66;100.00
45357;BME280;31092;51.924;21.448;2023-04-27T11:04:39;100459.84;;;11.00;100.00
45357;BME280;31092;51.924;21.448;2023-04-27T11:07:06;100456.00;;;11.03;100.00
45357;BME280;31092;51.924;21.448;2023-04-27T11:09:35;100469.50;;;11.19;100.00
45357;BME280;31092;51.924;21.448;2023-04-27T11:12:02;100464.19;;;11.36;100.00
45357;BME280;31092;51.924;21.448;2023-04-27T11:14:27;100463.66;;;11.32;100.00
45357;BME280;31092;51.924;21.448;2023-04-27T11:16:53;100468.47;;;11.12;100.00
45357;BME280;31092;51.924;21.448;2023-04-27T11:19:19;100478.31;;;10.87;100.00
45357;BME280;31092;51.924;21.448;2023-04-27T11:21:44;100487.63;;;10.59;100.00
45357;BME280;31092;51.924;21.448;2023-04-27T11:24:09;100498.94;;;10.18;100.00
45357;BME280;31092;51.924;21.448;2023-04-27T11:26:35;100500.50;;;9.49;100.00
45357;BME280;31092;51.924;21.448;2023-04-27T11:29:01;100509.66;;;8.83;100.00
45357;BME280;31092;51.924;21.448;2023-04-27T11:31:42;100514.91;;;8.38;100.00
45357;BME280;31092;51.924;21.448;2023-04-27T11:34:14;100513.81;;;8.11;100.00
45357;BME280;31092;51.924;21.448;2023-04-27T11:36:40;100516.03;;;7.97;100.00
45357;BME280;31092;51.924;21.448;2023-04-27T11:39:05;100520.03;;;7.83;100.00
45357;BME280;31092;51.924;21.448;2023-04-27T11:41:37;100516.22;;;7.76;100.00
45357;BME280;31092;51.924;21.448;2023-04-27T11:44:06;100523.41;;;7.65;100.00
45357;BME280;31092;51.924;21.448;2023-04-27T11:46:35;100537.63;;;7.56;100.00
45357;BME280;31092;51.924;21.448;2023-04-27T11:49:04;100526.50;;;7.51;100.00
45357;BME280;31092;51.924;21.448;2023-04-27T11:51:31;100528.59;;;7.48;100.00
45357;BME280;31092;51.924;21.448;2023-04-27T11:54:01;100524.09;;;7.48;100.00
45357;BME280;31092;51.924;21.448;2023-04-27T11:56:32;100524.78;;;7.50;100.00
45357;BME280;31092;51.924;21.448;2023-04-27T11:58:57;100520.97;;;7.53;100.00
45357;BME280;31092;51.924;21.448;2023-04-27T12:01:23;100518.88;;;7.56;100.00
45357;BME280;31092;51.924;21.448;2023-04-27T12:03:48;100522.13;;;7.60;100.00
45357;BME280;31092;51.924;21.448;2023-04-27T12:06:14;100524.53;;;7.63;100.00
45357;BME280;31092;51.924;21.448;2023-04-27T12:08:39;100524.25;;;7.66;100.00
45357;BME280;31092;51.924;21.448;2023-04-27T12:11:04;100525.50;;;7.72;100.00
45357;BME280;31092;51.924;21.448;2023-04-27T12:13:30;100517.19;;;7.75;100.00
45357;BME280;31092;51.924;21.448;2023-04-27T12:15:55;100523.97;;;7.79;100.00
45357;BME280;31092;51.924;21.448;2023-04-27T12:18:21;100513.50;;;7.85;100.00
45357;BME280;31092;51.924;21.448;2023-04-27T12:20:46;100512.53;;;7.96;100.00
45357;BME280;31092;51.924;21.448;2023-04-27T12:23:11;100505.19;;;8.08;100.00
45357;BME280;31092;51.924;21.448;2023-04-27T12:25:37;100512.06;;;8.20;100.00
45357;BME280;31092;51.924;21.448;2023-04-27T12:28:08;100510.78;;;8.34;100.00
45357;BME280;31092;51.924;21.448;2023-04-27T12:30:33;100512.47;;;8.54;100.00
45357;BME280;31092;51.924;21.448;2023-04-27T12:32:58;100511.00;;;8.70;100.00
45357;BME280;31092;51.924;21.448;2023-04-27T12:35:24;100507.25;;;8.90;100.00
45357;BME280;31092;51.924;21.448;2023-04-27T12:37:50;100502.59;;;9.10;100.00